sensor_id;sensor_type;location;lat;lon;timestamp;temperature;humidity
16521;DHT22;8373;48.110;11.522;2023-05-10T00:01:18;17.00;89.50
16521;DHT22;8373;48.110;11.522;2023-05-10T00:03:45;16.90;89.20
16521;DHT22;8373;48.110;11.522;2023-05-10T00:06:15;16.90;89.60
16521;DHT22;8373;48.110;11.522;2023-05-10T00:08:42;16.90;90.00
16521;DHT22;8373;48.110;11.522;2023-05-10T00:11:10;16.90;89.50
16521;DHT22;8373;48.110;11.522;2023-05-10T00:13:37;16.80;89.30
16521;DHT22;8373;48.110;11.522;2023-05-10T00:16:05;16.80;89.80
16521;DHT22;8373;48.110;11.522;2023-05-10T00:18:32;16.70;89.80
16521;DHT22;8373;48.110;11.522;2023-05-10T00:20:59;16.70;90.00
16521;DHT22;8373;48.110;11.522;2023-05-10T00:23:26;16.70;90.20
16521;DHT22;8373;48.110;11.522;2023-05-10T00:25:55;16.70;90.10
16521;DHT22;8373;48.110;11.522;2023-05-10T00:28:24;16.70;90.00
16521;DHT22;8373;48.110;11.522;2023-05-10T00:30:51;16.60;90.00
16521;DHT22;8373;48.110;11.522;2023-05-10T00:33:18;16.60;90.10
16521;DHT22;8373;48.110;11.522;2023-05-10T00:35:48;16.50;90.10
16521;DHT22;8373;48.110;11.522;2023-05-10T00:38:15;16.60;90.30
16521;DHT22;8373;48.110;11.522;2023-05-10T00:40:42;16.60;90.40
16521;DHT22;8373;48.110;11.522;2023-05-10T00:43:09;16.60;90.10
16521;DHT22;8373;48.110;11.522;2023-05-10T00:45:38;16.70;90.70
16521;DHT22;8373;48.110;11.522;2023-05-10T00:48:06;16.70;90.40
16521;DHT22;8373;48.110;11.522;2023-05-10T00:50:35;16.70;90.20
16521;DHT22;8373;48.110;11.522;2023-05-10T00:53:02;16.70;90.20
16521;DHT22;8373;48.110;11.522;2023-05-10T00:55:30;16.60;90.00
16521;DHT22;8373;48.110;11.522;2023-05-10T00:57:57;16.50;90.00
16521;DHT22;8373;48.110;11.522;2023-05-10T01:00:24;16.50;90.40
16521;DHT22;8373;48.110;11.522;2023-05-10T01:02:55;16.40;90.40
16521;DHT22;8373;48.110;11.522;2023-05-10T01:05:22;16.40;90.50
16521;DHT22;8373;48.110;11.522;2023-05-10T01:07:51;16.40;90.40
16521;DHT22;8373;48.110;11.522;2023-05-10T01:10:18;16.30;90.40
16521;DHT22;8373;48.110;11.522;2023-05-10T01:12:48;16.20;90.60
16521;DHT22;8373;48.110;11.522;2023-05-10T01:15:16;16.20;90.50
16521;DHT22;8373;48.110;11.522;2023-05-10T01:17:44;16.20;90.60
16521;DHT22;8373;48.110;11.522;2023-05-10T01:20:15;16.20;90.40
16521;DHT22;8373;48.110;11.522;2023-05-10T01:22:59;16.20;90.50
16521;DHT22;8373;48.110;11.522;2023-05-10T01:26:10;16.20;90.50
16521;DHT22;8373;48.110;11.522;2023-05-10T01:29:04;16.20;90.60
16521;DHT22;8373;48.110;11.522;2023-05-10T01:34:50;16.10;90.50
16521;DHT22;8373;48.110;11.522;2023-05-10T01:37:21;16.10;90.80
16521;DHT22;8373;48.110;11.522;2023-05-10T01:39:55;16.10;90.80
16521;DHT22;8373;48.110;11.522;2023-05-10T01:42:28;16.00;90.40
16521;DHT22;8373;48.110;11.522;2023-05-10T01:45:03;16.00;90.80
16521;DHT22;8373;48.110;11.522;2023-05-10T01:47:38;16.00;90.90
16521;DHT22;8373;48.110;11.522;2023-05-10T01:50:10;16.10;90.90
16521;DHT22;8373;48.110;11.522;2023-05-10T01:52:42;16.10;90.90
16521;DHT22;8373;48.110;11.522;2023-05-10T01:55:14;16.10;90.70
16521;DHT22;8373;48.110;11.522;2023-05-10T01:57:43;16.20;90.70
16521;DHT22;8373;48.110;11.522;2023-05-10T02:00:12;16.20;90.50
16521;DHT22;8373;48.110;11.522;2023-05-10T02:02:45;16.20;90.60
16521;DHT22;8373;48.110;11.522;2023-05-10T02:05:14;16.20;90.60
16521;DHT22;8373;48.110;11.522;2023-05-10T02:07:42;16.20;90.60
16521;DHT22;8373;48.110;11.522;2023-05-10T02:10:10;16.20;90.70
16521;DHT22;8373;48.110;11.522;2023-05-10T02:12:41;16.20;90.60
16521;DHT22;8373;48.110;11.522;2023-05-10T02:15:10;16.20;90.70
16521;DHT22;8373;48.110;11.522;2023-05-10T02:17:40;16.20;90.70
16521;DHT22;8373;48.110;11.522;2023-05-10T02:20:10;16.10;90.60
16521;DHT22;8373;48.110;11.522;2023-05-10T02:22:39;16.00;90.60
16521;DHT22;8373;48.110;11.522;2023-05-10T02:25:08;16.10;91.00
16521;DHT22;8373;48.110;11.522;2023-05-10T02:27:38;16.10;91.00
16521;DHT22;8373;48.110;11.522;2023-05-10T02:30:06;16.10;90.90
16521;DHT22;8373;48.110;11.522;2023-05-10T02:32:34;16.10;90.80
16521;DHT22;8373;48.110;11.522;2023-05-10T02:35:04;16.00;90.80
16521;DHT22;8373;48.110;11.522;2023-05-10T02:37:31;16.10;90.90
16521;DHT22;8373;48.110;11.522;2023-05-10T02:39:59;16.10;90.90
16521;DHT22;8373;48.110;11.522;2023-05-10T02:42:29;16.00;90.90
16521;DHT22;8373;48.110;11.522;2023-05-10T02:45:00;16.00;91.00
16521;DHT22;8373;48.110;11.522;2023-05-10T02:47:28;16.10;91.20
16521;DHT22;8373;48.110;11.522;2023-05-10T02:49:55;16.10;91.00
16521;DHT22;8373;48.110;11.522;2023-05-10T02:52:26;16.10;91.10
16521;DHT22;8373;48.110;11.522;2023-05-10T02:54:55;16.10;91.00
16521;DHT22;8373;48.110;11.522;2023-05-10T02:57:27;16.10;90.90
16521;DHT22;8373;48.110;11.522;2023-05-10T02:59:54;16.00;90.70
16521;DHT22;8373;48.110;11.522;2023-05-10T03:02:21;16.00;90.80
16521;DHT22;8373;48.110;11.522;2023-05-10T03:04:48;15.90;90.90
16521;DHT22;8373;48.110;11.522;2023-05-10T03:07:15;15.80;91.10
16521;DHT22;8373;48.110;11.522;2023-05-10T03:09:46;15.80;91.20
16521;DHT22;8373;48.110;11.522;2023-05-10T03:12:18;15.80;91.30
16521;DHT22;8373;48.110;11.522;2023-05-10T03:14:57;15.80;91.10
16521;DHT22;8373;48.110;11.522;2023-05-10T03:17:30;15.80;91.20
16521;DHT22;8373;48.110;11.522;2023-05-10T03:19:59;15.80;91.30
16521;DHT22;8373;48.110;11.522;2023-05-10T03:22:32;15.70;91.20
16521;DHT22;8373;48.110;11.522;2023-05-10T03:25:05;15.80;91.40
16521;DHT22;8373;48.110;11.522;2023-05-10T03:27:35;15.80;91.30
16521;DHT22;8373;48.110;11.522;2023-05-10T03:30:03;15.70;91.10
16521;DHT22;8373;48.110;11.522;2023-05-10T03:32:31;15.70;91.20
16521;DHT22;8373;48.110;11.522;2023-05-10T03:35:00;15.70;91.30
16521;DHT22;8373;48.110;11.522;2023-05-10T03:37:27;15.70;91.40
16521;DHT22;8373;48.110;11.522;2023-05-10T03:39:54;15.70;91.60
16521;DHT22;8373;48.110;11.522;2023-05-10T03:42:22;15.70;91.60
16521;DHT22;8373;48.110;11.522;2023-05-10T03:44:49;15.70;91.70
16521;DHT22;8373;48.110;11.522;2023-05-10T03:47:16;15.70;91.70
16521;DHT22;8373;48.110;11.522;2023-05-10T03:49:43;15.70;91.80
16521;DHT22;8373;48.110;11.522;2023-05-10T03:52:09;15.60;91.70
16521;DHT22;8373;48.110;11.522;2023-05-10T03:54:36;15.60;91.70
16521;DHT22;8373;48.110;11.522;2023-05-10T03:57:03;15.60;91.80
16521;DHT22;8373;48.110;11.522;2023-05-10T03:59:32;15.60;91.90
16521;DHT22;8373;48.110;11.522;2023-05-10T04:01:59;15.60;92.00
16521;DHT22;8373;48.110;11.522;2023-05-10T04:04:26;15.60;91.80
16521;DHT22;8373;48.110;11.522;2023-05-10T04:06:52;15.60;91.90
16521;DHT22;8373;48.110;11.522;2023-05-10T04:09:20;15.60;92.10
16521;DHT22;8373;48.110;11.522;2023-05-10T04:11:47;15.70;92.00
16521;DHT22;8373;48.110;11.522;2023-05-10T04:14:14;15.70;91.80
16521;DHT22;8373;48.110;11.522;2023-05-10T04:16:42;15.60;91.80
16521;DHT22;8373;48.110;11.522;2023-05-10T04:19:09;15.60;92.00
16521;DHT22;8373;48.110;11.522;2023-05-10T04:21:36;15.60;92.10
16521;DHT22;8373;48.110;11.522;2023-05-10T04:24:04;15.60;92.20
16521;DHT22;8373;48.110;11.522;2023-05-10T04:26:31;15.70;92.10
16521;DHT22;8373;48.110;11.522;2023-05-10T04:28:57;15.70;92.10
16521;DHT22;8373;48.110;11.522;2023-05-10T04:31:24;15.70;92.10
16521;DHT22;8373;48.110;11.522;2023-05-10T04:33:53;15.70;92.00
16521;DHT22;8373;48.110;11.522;2023-05-10T04:36:20;15.70;91.80
16521;DHT22;8373;48.110;11.522;2023-05-10T04:38:47;15.70;92.00
16521;DHT22;8373;48.110;11.522;2023-05-10T04:41:14;15.70;92.00
16521;DHT22;8373;48.110;11.522;2023-05-10T04:43:41;15.70;91.80
16521;DHT22;8373;48.110;11.522;2023-05-10T04:46:08;15.70;91.70
16521;DHT22;8373;48.110;11.522;2023-05-10T04:48:35;15.60;91.80
16521;DHT22;8373;48.110;11.522;2023-05-10T04:51:03;15.60;91.80
16521;DHT22;8373;48.110;11.522;2023-05-10T04:53:32;15.40;91.60
16521;DHT22;8373;48.110;11.522;2023-05-10T04:55:59;15.30;91.70
16521;DHT22;8373;48.110;11.522;2023-05-10T04:58:26;15.20;92.20
16521;DHT22;8373;48.110;11.522;2023-05-10T05:00:53;15.20;92.40
16521;DHT22;8373;48.110;11.522;2023-05-10T05:03:20;15.20;92.60
16521;DHT22;8373;48.110;11.522;2023-05-10T05:05:47;15.20;92.50
16521;DHT22;8373;48.110;11.522;2023-05-10T05:08:16;15.20;92.20
16521;DHT22;8373;48.110;11.522;2023-05-10T05:10:42;15.30;92.40
16521;DHT22;8373;48.110;11.522;2023-05-10T05:13:09;15.30;92.10
16521;DHT22;8373;48.110;11.522;2023-05-10T05:15:36;15.30;92.00
16521;DHT22;8373;48.110;11.522;2023-05-10T05:18:03;15.20;92.10
16521;DHT22;8373;48.110;11.522;2023-05-10T05:20:32;15.30;92.20
16521;DHT22;8373;48.110;11.522;2023-05-10T05:22:59;15.30;92.30
16521;DHT22;8373;48.110;11.522;2023-05-10T05:25:28;15.40;92.40
16521;DHT22;8373;48.110;11.522;2023-05-10T05:27:55;15.40;92.40
16521;DHT22;8373;48.110;11.522;2023-05-10T05:30:22;15.30;92.10
16521;DHT22;8373;48.110;11.522;2023-05-10T05:32:49;15.30;92.10
16521;DHT22;8373;48.110;11.522;2023-05-10T05:35:16;15.20;92.00
16521;DHT22;8373;48.110;11.522;2023-05-10T05:37:42;15.20;92.10
16521;DHT22;8373;48.110;11.522;2023-05-10T05:40:12;15.20;92.20
16521;DHT22;8373;48.110;11.522;2023-05-10T05:42:40;15.00;91.90
16521;DHT22;8373;48.110;11.522;2023-05-10T05:45:08;14.90;91.80
16521;DHT22;8373;48.110;11.522;2023-05-10T05:47:38;14.80;91.80
16521;DHT22;8373;48.110;11.522;2023-05-10T05:50:06;14.80;91.90
16521;DHT22;8373;48.110;11.522;2023-05-10T05:52:33;14.70;92.40
16521;DHT22;8373;48.110;11.522;2023-05-10T05:55:00;14.80;92.40
16521;DHT22;8373;48.110;11.522;2023-05-10T05:57:27;14.90;92.40
16521;DHT22;8373;48.110;11.522;2023-05-10T05:59:55;15.00;92.30
16521;DHT22;8373;48.110;11.522;2023-05-10T06:02:22;15.00;92.30
16521;DHT22;8373;48.110;11.522;2023-05-10T06:04:49;15.10;92.00
16521;DHT22;8373;48.110;11.522;2023-05-10T06:07:16;15.10;91.90
16521;DHT22;8373;48.110;11.522;2023-05-10T06:09:43;15.10;92.10
16521;DHT22;8373;48.110;11.522;2023-05-10T06:12:10;15.20;92.30
16521;DHT22;8373;48.110;11.522;2023-05-10T06:14:38;15.30;92.00
16521;DHT22;8373;48.110;11.522;2023-05-10T06:17:06;15.30;91.90
16521;DHT22;8373;48.110;11.522;2023-05-10T06:19:33;15.30;91.80
16521;DHT22;8373;48.110;11.522;2023-05-10T06:22:00;15.40;91.90
16521;DHT22;8373;48.110;11.522;2023-05-10T06:24:27;15.50;92.00
16521;DHT22;8373;48.110;11.522;2023-05-10T06:26:54;15.50;92.00
16521;DHT22;8373;48.110;11.522;2023-05-10T06:29:21;15.50;91.50
16521;DHT22;8373;48.110;11.522;2023-05-10T06:31:48;15.50;91.60
16521;DHT22;8373;48.110;11.522;2023-05-10T06:34:16;15.60;92.00
16521;DHT22;8373;48.110;11.522;2023-05-10T06:36:43;15.70;91.80
16521;DHT22;8373;48.110;11.522;2023-05-10T06:39:10;15.80;91.80
16521;DHT22;8373;48.110;11.522;2023-05-10T06:41:37;15.90;91.40
16521;DHT22;8373;48.110;11.522;2023-05-10T06:44:04;16.00;91.30
16521;DHT22;8373;48.110;11.522;2023-05-10T06:46:31;16.10;91.30
16521;DHT22;8373;48.110;11.522;2023-05-10T06:48:58;16.20;91.30
16521;DHT22;8373;48.110;11.522;2023-05-10T06:51:26;16.30;91.00
16521;DHT22;8373;48.110;11.522;2023-05-10T06:53:53;16.40;90.90
16521;DHT22;8373;48.110;11.522;2023-05-10T06:56:20;16.40;90.20
16521;DHT22;8373;48.110;11.522;2023-05-10T06:58:48;16.30;90.10
16521;DHT22;8373;48.110;11.522;2023-05-10T07:01:15;16.30;90.50
16521;DHT22;8373;48.110;11.522;2023-05-10T07:03:42;16.30;90.80
16521;DHT22;8373;48.110;11.522;2023-05-10T07:06:08;16.50;91.20
16521;DHT22;8373;48.110;11.522;2023-05-10T07:08:37;16.50;90.60
16521;DHT22;8373;48.110;11.522;2023-05-10T07:11:05;16.70;90.80
16521;DHT22;8373;48.110;11.522;2023-05-10T07:13:33;16.90;90.40
16521;DHT22;8373;48.110;11.522;2023-05-10T07:16:00;17.00;90.00
16521;DHT22;8373;48.110;11.522;2023-05-10T07:18:27;17.10;89.90
16521;DHT22;8373;48.110;11.522;2023-05-10T07:20:54;17.30;90.00
16521;DHT22;8373;48.110;11.522;2023-05-10T07:23:21;17.50;89.10
16521;DHT22;8373;48.110;11.522;2023-05-10T07:25:50;17.50;86.60
16521;DHT22;8373;48.110;11.522;2023-05-10T07:28:18;17.60;87.00
16521;DHT22;8373;48.110;11.522;2023-05-10T07:30:45;17.50;83.90
16521;DHT22;8373;48.110;11.522;2023-05-10T07:33:13;17.50;84.30
16521;DHT22;8373;48.110;11.522;2023-05-10T07:35:41;17.40;83.80
16521;DHT22;8373;48.110;11.522;2023-05-10T07:38:08;17.60;85.20
16521;DHT22;8373;48.110;11.522;2023-05-10T07:40:36;17.90;85.50
16521;DHT22;8373;48.110;11.522;2023-05-10T07:43:05;18.10;84.40
16521;DHT22;8373;48.110;11.522;2023-05-10T07:45:33;18.10;82.80
16521;DHT22;8373;48.110;11.522;2023-05-10T07:48:00;18.00;81.00
16521;DHT22;8373;48.110;11.522;2023-05-10T07:50:26;17.70;80.90
16521;DHT22;8373;48.110;11.522;2023-05-10T07:52:53;17.80;82.40
16521;DHT22;8373;48.110;11.522;2023-05-10T07:55:20;17.80;82.60
16521;DHT22;8373;48.110;11.522;2023-05-10T07:57:47;17.80;81.80
16521;DHT22;8373;48.110;11.522;2023-05-10T08:00:18;17.90;82.60
16521;DHT22;8373;48.110;11.522;2023-05-10T08:02:46;18.10;81.50
16521;DHT22;8373;48.110;11.522;2023-05-10T08:05:13;18.10;80.40
16521;DHT22;8373;48.110;11.522;2023-05-10T08:07:40;18.00;79.40
16521;DHT22;8373;48.110;11.522;2023-05-10T08:10:08;18.00;79.20
16521;DHT22;8373;48.110;11.522;2023-05-10T08:12:36;18.10;79.50
16521;DHT22;8373;48.110;11.522;2023-05-10T08:15:04;18.20;78.60
16521;DHT22;8373;48.110;11.522;2023-05-10T08:17:33;18.60;78.90
16521;DHT22;8373;48.110;11.522;2023-05-10T08:20:00;18.60;76.70
16521;DHT22;8373;48.110;11.522;2023-05-10T08:22:27;18.50;75.70
16521;DHT22;8373;48.110;11.522;2023-05-10T08:24:54;18.40;75.80
16521;DHT22;8373;48.110;11.522;2023-05-10T08:27:21;18.20;76.30
16521;DHT22;8373;48.110;11.522;2023-05-10T08:29:48;18.00;76.70
16521;DHT22;8373;48.110;11.522;2023-05-10T08:32:15;17.70;76.40
16521;DHT22;8373;48.110;11.522;2023-05-10T08:34:43;17.60;77.60
16521;DHT22;8373;48.110;11.522;2023-05-10T08:37:10;17.50;77.90
16521;DHT22;8373;48.110;11.522;2023-05-10T08:39:38;17.40;78.60
16521;DHT22;8373;48.110;11.522;2023-05-10T08:42:06;17.40;79.30
16521;DHT22;8373;48.110;11.522;2023-05-10T08:44:35;17.30;79.80
16521;DHT22;8373;48.110;11.522;2023-05-10T08:47:05;17.30;79.60
16521;DHT22;8373;48.110;11.522;2023-05-10T08:49:33;17.30;80.30
16521;DHT22;8373;48.110;11.522;2023-05-10T08:52:03;17.20;80.60
16521;DHT22;8373;48.110;11.522;2023-05-10T08:54:31;17.20;80.80
16521;DHT22;8373;48.110;11.522;2023-05-10T08:56:59;17.20;80.40
16521;DHT22;8373;48.110;11.522;2023-05-10T08:59:26;17.10;80.70
16521;DHT22;8373;48.110;11.522;2023-05-10T09:01:55;17.10;81.10
16521;DHT22;8373;48.110;11.522;2023-05-10T09:04:23;17.20;81.70
16521;DHT22;8373;48.110;11.522;2023-05-10T09:06:50;17.40;81.30
16521;DHT22;8373;48.110;11.522;2023-05-10T09:09:19;17.50;81.30
16521;DHT22;8373;48.110;11.522;2023-05-10T09:11:47;17.70;81.20
16521;DHT22;8373;48.110;11.522;2023-05-10T09:14:15;17.70;79.80
16521;DHT22;8373;48.110;11.522;2023-05-10T09:16:43;17.70;78.80
16521;DHT22;8373;48.110;11.522;2023-05-10T09:19:10;17.60;78.30
16521;DHT22;8373;48.110;11.522;2023-05-10T09:21:37;17.50;78.20
16521;DHT22;8373;48.110;11.522;2023-05-10T09:24:05;17.40;77.50
16521;DHT22;8373;48.110;11.522;2023-05-10T09:26:34;17.30;77.70
16521;DHT22;8373;48.110;11.522;2023-05-10T09:29:02;17.20;77.70
16521;DHT22;8373;48.110;11.522;2023-05-10T09:31:51;17.30;78.20
16521;DHT22;8373;48.110;11.522;2023-05-10T09:34:22;17.50;78.80
16521;DHT22;8373;48.110;11.522;2023-05-10T09:36:57;17.80;78.80
16521;DHT22;8373;48.110;11.522;2023-05-10T09:39:30;18.10;76.60
16521;DHT22;8373;48.110;11.522;2023-05-10T09:42:01;18.10;74.20
16521;DHT22;8373;48.110;11.522;2023-05-10T09:44:30;18.10;73.60
16521;DHT22;8373;48.110;11.522;2023-05-10T09:46:57;18.20;73.30
16521;DHT22;8373;48.110;11.522;2023-05-10T09:49:24;18.20;72.10
16521;DHT22;8373;48.110;11.522;2023-05-10T09:52:00;18.10;72.40
16521;DHT22;8373;48.110;11.522;2023-05-10T09:54:28;18.00;72.20
16521;DHT22;8373;48.110;11.522;2023-05-10T09:56:56;18.20;73.30
16521;DHT22;8373;48.110;11.522;2023-05-10T09:59:26;18.20;72.30
16521;DHT22;8373;48.110;11.522;2023-05-10T10:01:56;18.40;72.10
16521;DHT22;8373;48.110;11.522;2023-05-10T10:04:23;18.50;71.80
16521;DHT22;8373;48.110;11.522;2023-05-10T10:06:59;18.80;71.40
16521;DHT22;8373;48.110;11.522;2023-05-10T10:09:27;18.80;69.50
16521;DHT22;8373;48.110;11.522;2023-05-10T10:11:55;18.80;69.70
16521;DHT22;8373;48.110;11.522;2023-05-10T10:14:22;19.00;70.20
16521;DHT22;8373;48.110;11.522;2023-05-10T10:16:51;19.00;69.70
16521;DHT22;8373;48.110;11.522;2023-05-10T10:19:18;18.90;68.90
16521;DHT22;8373;48.110;11.522;2023-05-10T10:21:46;19.00;68.50
16521;DHT22;8373;48.110;11.522;2023-05-10T10:24:13;19.10;68.00
16521;DHT22;8373;48.110;11.522;2023-05-10T10:26:40;19.20;65.80
16521;DHT22;8373;48.110;11.522;2023-05-10T10:29:23;19.40;65.00
16521;DHT22;8373;48.110;11.522;2023-05-10T10:31:57;19.80;66.30
16521;DHT22;8373;48.110;11.522;2023-05-10T10:34:29;20.20;65.70
16521;DHT22;8373;48.110;11.522;2023-05-10T10:36:57;20.40;63.50
16521;DHT22;8373;48.110;11.522;2023-05-10T10:39:30;20.50;63.20
16521;DHT22;8373;48.110;11.522;2023-05-10T10:41:58;20.50;63.50
16521;DHT22;8373;48.110;11.522;2023-05-10T10:44:33;20.60;63.00
16521;DHT22;8373;48.110;11.522;2023-05-10T10:47:07;20.60;61.90
16521;DHT22;8373;48.110;11.522;2023-05-10T10:49:48;20.40;61.40
16521;DHT22;8373;48.110;11.522;2023-05-10T10:52:22;20.20;61.30
16521;DHT22;8373;48.110;11.522;2023-05-10T10:54:53;19.90;62.30
16521;DHT22;8373;48.110;11.522;2023-05-10T10:57:24;19.60;65.00
16521;DHT22;8373;48.110;11.522;2023-05-10T10:59:53;19.30;67.40
16521;DHT22;8373;48.110;11.522;2023-05-10T11:02:44;18.90;68.80
16521;DHT22;8373;48.110;11.522;2023-05-10T11:05:44;18.50;74.50
16521;DHT22;8373;48.110;11.522;2023-05-10T11:08:13;18.10;75.40
16521;DHT22;8373;48.110;11.522;2023-05-10T11:10:50;18.00;77.00
16521;DHT22;8373;48.110;11.522;2023-05-10T11:13:28;17.80;77.10
16521;DHT22;8373;48.110;11.522;2023-05-10T11:15:56;17.80;79.50
16521;DHT22;8373;48.110;11.522;2023-05-10T11:18:27;17.80;80.70
16521;DHT22;8373;48.110;11.522;2023-05-10T11:20:57;17.80;81.50
16521;DHT22;8373;48.110;11.522;2023-05-10T11:23:29;17.70;81.00
16521;DHT22;8373;48.110;11.522;2023-05-10T11:25:56;17.60;80.60
16521;DHT22;8373;48.110;11.522;2023-05-10T11:28:24;17.40;81.00
16521;DHT22;8373;48.110;11.522;2023-05-10T11:30:52;17.20;82.40
16521;DHT22;8373;48.110;11.522;2023-05-10T11:33:20;17.10;83.50
16521;DHT22;8373;48.110;11.522;2023-05-10T11:35:48;16.90;83.40
16521;DHT22;8373;48.110;11.522;2023-05-10T11:38:15;16.80;83.90
16521;DHT22;8373;48.110;11.522;2023-05-10T11:40:42;16.70;85.00
16521;DHT22;8373;48.110;11.522;2023-05-10T11:43:09;16.60;85.80
16521;DHT22;8373;48.110;11.522;2023-05-10T11:45:37;16.60;86.40
16521;DHT22;8373;48.110;11.522;2023-05-10T11:48:05;16.40;86.00
16521;DHT22;8373;48.110;11.522;2023-05-10T11:50:32;16.40;86.80
16521;DHT22;8373;48.110;11.522;2023-05-10T11:53:00;16.30;86.00
16521;DHT22;8373;48.110;11.522;2023-05-10T11:55:27;16.20;85.80
16521;DHT22;8373;48.110;11.522;2023-05-10T11:58:00;16.10;85.80
16521;DHT22;8373;48.110;11.522;2023-05-10T12:00:28;16.00;85.60
16521;DHT22;8373;48.110;11.522;2023-05-10T12:02:55;15.90;86.30
16521;DHT22;8373;48.110;11.522;2023-05-10T12:05:22;15.80;86.30
16521;DHT22;8373;48.110;11.522;2023-05-10T12:07:49;15.70;86.10
16521;DHT22;8373;48.110;11.522;2023-05-10T12:10:25;15.80;86.80
16521;DHT22;8373;48.110;11.522;2023-05-10T12:12:52;15.80;87.10
16521;DHT22;8373;48.110;11.522;2023-05-10T12:15:21;15.80;87.60
16521;DHT22;8373;48.110;11.522;2023-05-10T12:17:48;15.80;87.90
16521;DHT22;8373;48.110;11.522;2023-05-10T12:20:17;15.90;87.60
16521;DHT22;8373;48.110;11.522;2023-05-10T12:22:49;16.00;87.40
16521;DHT22;8373;48.110;11.522;2023-05-10T12:25:18;16.00;87.40
16521;DHT22;8373;48.110;11.522;2023-05-10T12:27:50;16.00;86.80
16521;DHT22;8373;48.110;11.522;2023-05-10T12:30:21;16.10;87.10
16521;DHT22;8373;48.110;11.522;2023-05-10T12:32:49;16.20;87.20
16521;DHT22;8373;48.110;11.522;2023-05-10T12:35:16;16.20;86.80
16521;DHT22;8373;48.110;11.522;2023-05-10T12:37:46;16.30;87.30
16521;DHT22;8373;48.110;11.522;2023-05-10T12:40:13;16.30;86.90
16521;DHT22;8373;48.110;11.522;2023-05-10T12:42:41;16.30;86.00
16521;DHT22;8373;48.110;11.522;2023-05-10T12:45:11;16.30;86.50
16521;DHT22;8373;48.110;11.522;2023-05-10T12:47:38;16.40;86.90
16521;DHT22;8373;48.110;11.522;2023-05-10T12:50:06;16.50;86.30
16521;DHT22;8373;48.110;11.522;2023-05-10T12:52:34;16.60;86.00
16521;DHT22;8373;48.110;11.522;2023-05-10T12:55:01;16.60;85.60
16521;DHT22;8373;48.110;11.522;2023-05-10T12:57:28;16.60;85.50
16521;DHT22;8373;48.110;11.522;2023-05-10T12:59:57;16.60;85.90
16521;DHT22;8373;48.110;11.522;2023-05-10T13:02:24;16.70;86.10
16521;DHT22;8373;48.110;11.522;2023-05-10T13:04:51;16.70;85.90
16521;DHT22;8373;48.110;11.522;2023-05-10T13:07:18;16.80;86.10
16521;DHT22;8373;48.110;11.522;2023-05-10T13:09:45;16.70;85.60
16521;DHT22;8373;48.110;11.522;2023-05-10T13:12:12;16.80;85.20
16521;DHT22;8373;48.110;11.522;2023-05-10T13:14:39;16.70;84.90
16521;DHT22;8373;48.110;11.522;2023-05-10T13:17:08;16.70;85.60
16521;DHT22;8373;48.110;11.522;2023-05-10T13:19:35;16.60;85.70
16521;DHT22;8373;48.110;11.522;2023-05-10T13:22:03;16.60;86.20
16521;DHT22;8373;48.110;11.522;2023-05-10T13:24:29;16.60;86.30
16521;DHT22;8373;48.110;11.522;2023-05-10T13:26:56;16.30;84.90
16521;DHT22;8373;48.110;11.522;2023-05-10T13:29:23;16.10;85.70
16521;DHT22;8373;48.110;11.522;2023-05-10T13:31:50;16.00;87.00
16521;DHT22;8373;48.110;11.522;2023-05-10T13:34:18;15.90;87.40
16521;DHT22;8373;48.110;11.522;2023-05-10T13:36:47;15.90;87.90
16521;DHT22;8373;48.110;11.522;2023-05-10T13:39:14;16.00;88.60
16521;DHT22;8373;48.110;11.522;2023-05-10T13:41:41;16.00;88.20
16521;DHT22;8373;48.110;11.522;2023-05-10T13:44:08;15.90;87.60
16521;DHT22;8373;48.110;11.522;2023-05-10T13:46:36;15.70;87.20
16521;DHT22;8373;48.110;11.522;2023-05-10T13:49:04;15.70;88.70
16521;DHT22;8373;48.110;11.522;2023-05-10T13:51:33;15.60;89.50
16521;DHT22;8373;48.110;11.522;2023-05-10T13:54:00;15.70;89.80
16521;DHT22;8373;48.110;11.522;2023-05-10T13:56:27;15.80;89.80
16521;DHT22;8373;48.110;11.522;2023-05-10T13:58:55;15.90;89.60
16521;DHT22;8373;48.110;11.522;2023-05-10T14:01:22;15.90;89.90
16521;DHT22;8373;48.110;11.522;2023-05-10T14:03:49;16.10;89.50
16521;DHT22;8373;48.110;11.522;2023-05-10T14:06:16;16.10;88.80
16521;DHT22;8373;48.110;11.522;2023-05-10T14:08:44;16.20;88.30
16521;DHT22;8373;48.110;11.522;2023-05-10T14:11:11;16.20;87.00
16521;DHT22;8373;48.110;11.522;2023-05-10T14:13:39;16.10;86.60
16521;DHT22;8373;48.110;11.522;2023-05-10T14:16:06;15.90;86.80
16521;DHT22;8373;48.110;11.522;2023-05-10T14:18:33;15.90;87.70
16521;DHT22;8373;48.110;11.522;2023-05-10T14:21:01;15.70;87.70
16521;DHT22;8373;48.110;11.522;2023-05-10T14:23:28;15.70;88.70
16521;DHT22;8373;48.110;11.522;2023-05-10T14:25:57;15.70;89.30
16521;DHT22;8373;48.110;11.522;2023-05-10T14:28:24;15.60;89.40
16521;DHT22;8373;48.110;11.522;2023-05-10T14:30:50;15.70;90.30
16521;DHT22;8373;48.110;11.522;2023-05-10T14:33:17;15.90;89.60
16521;DHT22;8373;48.110;11.522;2023-05-10T14:35:44;15.90;88.50
16521;DHT22;8373;48.110;11.522;2023-05-10T14:38:12;15.90;88.10
16521;DHT22;8373;48.110;11.522;2023-05-10T14:40:39;15.80;87.80
16521;DHT22;8373;48.110;11.522;2023-05-10T14:43:07;15.80;86.30
16521;DHT22;8373;48.110;11.522;2023-05-10T14:45:34;15.70;86.10
16521;DHT22;8373;48.110;11.522;2023-05-10T14:48:01;15.80;87.40
16521;DHT22;8373;48.110;11.522;2023-05-10T14:50:30;15.80;88.20
16521;DHT22;8373;48.110;11.522;2023-05-10T14:52:57;15.70;87.10
16521;DHT22;8373;48.110;11.522;2023-05-10T14:55:24;15.60;87.40
16521;DHT22;8373;48.110;11.522;2023-05-10T14:57:51;15.70;88.20
16521;DHT22;8373;48.110;11.522;2023-05-10T15:00:20;15.70;88.40
16521;DHT22;8373;48.110;11.522;2023-05-10T15:02:47;15.70;88.40
16521;DHT22;8373;48.110;11.522;2023-05-10T15:05:14;15.70;87.70
16521;DHT22;8373;48.110;11.522;2023-05-10T15:07:41;15.50;87.10
16521;DHT22;8373;48.110;11.522;2023-05-10T15:10:09;15.50;88.00
16521;DHT22;8373;48.110;11.522;2023-05-10T15:12:36;15.50;88.60
16521;DHT22;8373;48.110;11.522;2023-05-10T15:15:04;15.50;88.80
16521;DHT22;8373;48.110;11.522;2023-05-10T15:17:33;15.40;88.50
16521;DHT22;8373;48.110;11.522;2023-05-10T15:20:00;15.30;88.70
16521;DHT22;8373;48.110;11.522;2023-05-10T15:22:28;15.30;89.60
16521;DHT22;8373;48.110;11.522;2023-05-10T15:24:55;15.30;89.10
16521;DHT22;8373;48.110;11.522;2023-05-10T15:27:22;15.20;89.10
16521;DHT22;8373;48.110;11.522;2023-05-10T15:29:49;15.20;89.50
16521;DHT22;8373;48.110;11.522;2023-05-10T15:32:16;15.20;90.00
16521;DHT22;8373;48.110;11.522;2023-05-10T15:34:44;15.10;90.00
16521;DHT22;8373;48.110;11.522;2023-05-10T15:37:11;15.10;89.90
16521;DHT22;8373;48.110;11.522;2023-05-10T15:39:38;15.10;89.70
16521;DHT22;8373;48.110;11.522;2023-05-10T15:42:05;15.00;89.80